createdAt,value
2022-08-01T00:00:15.321Z,70.68
2022-08-01T00:02:42.588Z,70.67
2022-08-01T00:05:10.416Z,71.05
2022-08-01T00:07:38.839Z,71.53
2022-08-01T00:10:10.449Z,70.98
2022-08-01T00:12:37.639Z,71.21
2022-08-01T00:15:08.238Z,71.26
2022-08-01T00:17:35.254Z,71.41
2022-08-01T00:20:04.173Z,71.34
2022-08-01T00:22:33.144Z,71.46
2022-08-01T00:25:00.265Z,71.40
2022-08-01T00:27:27.954Z,71.30
2022-08-01T00:30:11.523Z,71.30
2022-08-01T00:32:42.210Z,71.50
2022-08-01T00:35:09.293Z,71.33
2022-08-01T00:37:36.177Z,72.04
2022-08-01T00:40:03.674Z,72.71
2022-08-01T00:42:30.512Z,72.97
2022-08-01T00:44:57.482Z,73.11
2022-08-01T00:47:24.309Z,72.99
2022-08-01T00:49:51.334Z,72.88
2022-08-01T00:52:18.571Z,73.71
2022-08-01T00:54:45.454Z,73.71
2022-08-01T00:57:13.242Z,73.92
2022-08-01T00:59:42.695Z,74.34
2022-08-01T01:02:14.483Z,74.37
2022-08-01T01:04:43.720Z,74.71
2022-08-01T01:08:04.276Z,74.57
2022-08-01T01:10:53.648Z,74.62
2022-08-01T01:13:37.231Z,74.34
2022-08-01T01:16:20.377Z,74.36
2022-08-01T01:18:56.909Z,74.61
2022-08-01T01:21:24.956Z,73.99
2022-08-01T01:24:06.617Z,74.41
2022-08-01T01:26:57.929Z,74.45
2022-08-01T01:29:58.709Z,74.66
2022-08-01T01:32:40.180Z,74.53
2022-08-01T01:35:14.146Z,74.40
2022-08-01T01:37:43.043Z,74.52
2022-08-01T01:40:12.403Z,74.67
2022-08-01T01:42:41.231Z,74.61
2022-08-01T01:45:08.832Z,74.48
2022-08-01T01:47:37.946Z,74.69
2022-08-01T01:50:08.052Z,74.64
2022-08-01T01:52:36.043Z,75.24
2022-08-01T01:55:07.467Z,75.01
2022-08-01T01:57:40.537Z,75.25
2022-08-01T02:00:13.258Z,75.45
2022-08-01T02:02:43.340Z,75.59
2022-08-01T02:05:13.298Z,75.23
2022-08-01T02:07:41.039Z,75.87
2022-08-01T02:10:10.286Z,75.98
2022-08-01T02:12:43.507Z,75.35
2022-08-01T02:15:11.982Z,75.56
2022-08-01T02:17:45.068Z,76.01
2022-08-01T02:20:13.738Z,76.27
2022-08-01T02:22:52.435Z,76.44
2022-08-01T02:26:10.015Z,75.74
2022-08-01T02:28:48.896Z,75.92
2022-08-01T02:31:22.022Z,75.92
2022-08-01T02:34:03.331Z,75.78
2022-08-01T02:36:35.098Z,75.38
2022-08-01T02:39:10.662Z,74.98
2022-08-01T02:41:44.769Z,75.32
2022-08-01T02:44:28.525Z,74.93
2022-08-01T02:47:03.584Z,74.99
2022-08-01T02:49:36.987Z,74.69
2022-08-01T02:52:09.649Z,75.08
2022-08-01T02:54:37.927Z,75.56
2022-08-01T02:57:08.778Z,75.34
2022-08-01T02:59:41.821Z,75.29
2022-08-01T03:02:11.117Z,75.54
2022-08-01T03:04:41.104Z,76.48
2022-08-01T03:07:10.488Z,75.99
2022-08-01T03:09:44.465Z,76.21
2022-08-01T03:12:18.555Z,76.63
2022-08-01T03:14:48.151Z,76.34
2022-08-01T03:17:19.731Z,76.74
2022-08-01T03:19:47.863Z,76.57
2022-08-01T03:22:16.716Z,76.70
2022-08-01T03:24:50.975Z,76.49
2022-08-01T03:27:20.552Z,76.76
2022-08-01T03:29:48.816Z,76.90
2022-08-01T03:32:18.022Z,76.45
2022-08-01T03:34:45.153Z,76.99
2022-08-01T03:37:30.505Z,76.86
2022-08-01T03:40:06.314Z,77.03
2022-08-01T03:42:37.746Z,77.03
2022-08-01T03:45:20.446Z,76.64
2022-08-01T03:47:50.274Z,77.20
2022-08-01T03:50:22.912Z,77.55
2022-08-01T03:52:52.423Z,76.97
2022-08-01T03:55:21.952Z,77.00
2022-08-01T03:57:49.636Z,77.52
2022-08-01T04:00:19.652Z,77.35
2022-08-01T04:02:51.104Z,76.84
2022-08-01T04:05:19.130Z,76.99
2022-08-01T04:07:57.105Z,77.72
2022-08-01T04:10:25.109Z,77.79
2022-08-01T04:12:52.262Z,78.06
2022-08-01T04:15:21.355Z,77.89
2022-08-01T04:17:49.250Z,77.73
2022-08-01T04:20:16.808Z,77.83
2022-08-01T04:22:43.714Z,78.07
2022-08-01T04:25:21.051Z,78.25
2022-08-01T04:27:52.323Z,78.06
2022-08-01T04:30:26.528Z,78.49
2022-08-01T04:32:56.963Z,77.63
2022-08-01T04:36:03.507Z,77.55
2022-08-01T04:38:18.683Z,77.79
2022-08-01T04:40:47.304Z,77.85
2022-08-01T04:43:15.074Z,78.07
2022-08-01T04:45:45.022Z,78.07
2022-08-01T04:48:12.664Z,77.92
2022-08-01T04:50:39.646Z,78.15
2022-08-01T04:53:06.495Z,78.30
2022-08-01T04:55:33.542Z,78.70
2022-08-01T04:58:00.556Z,78.40
2022-08-01T05:00:29.602Z,78.32
2022-08-01T05:02:57.757Z,78.24
2022-08-01T05:05:27.363Z,78.44
2022-08-01T05:07:54.201Z,78.38
2022-08-01T05:10:21.479Z,78.41
2022-08-01T05:12:48.343Z,78.44
2022-08-01T05:15:15.835Z,78.83
2022-08-01T05:17:43.573Z,78.97
2022-08-01T05:20:12.794Z,78.58
2022-08-01T05:22:40.407Z,78.95
2022-08-01T05:25:08.145Z,78.39
2022-08-01T05:27:40.472Z,78.54
2022-08-01T05:30:11.578Z,78.12
2022-08-01T05:32:39.216Z,77.95
2022-08-01T05:35:07.215Z,77.82
2022-08-01T05:37:34.464Z,77.75
2022-08-01T05:40:01.607Z,77.57
2022-08-01T05:42:28.421Z,77.19
2022-08-01T05:44:55.279Z,76.80
2022-08-01T05:47:22.188Z,76.69
2022-08-01T05:49:49.060Z,76.36
2022-08-01T05:52:16.081Z,76.36
2022-08-01T05:54:42.914Z,76.13
2022-08-01T05:57:09.774Z,76.52
2022-08-01T05:59:38.034Z,76.29
2022-08-01T06:02:05.438Z,76.33
2022-08-01T06:04:32.540Z,76.40
2022-08-01T06:06:59.400Z,76.15
2022-08-01T06:09:26.364Z,75.76
2022-08-01T06:11:53.226Z,75.81
2022-08-01T06:14:20.069Z,75.91
2022-08-01T06:16:47.191Z,75.64
2022-08-01T06:19:14.032Z,75.69
2022-08-01T06:21:40.856Z,75.82
2022-08-01T06:24:07.850Z,75.84
2022-08-01T06:26:34.740Z,75.53
2022-08-01T06:29:01.805Z,75.33
2022-08-01T06:31:33.411Z,75.22
2022-08-01T06:34:00.864Z,75.39
2022-08-01T06:36:28.165Z,74.85
2022-08-01T06:38:55.350Z,74.71
2022-08-01T06:41:22.182Z,74.48
2022-08-01T06:43:49.034Z,73.91
2022-08-01T06:46:16.029Z,73.61
2022-08-01T06:48:43.785Z,73.56
2022-08-01T06:51:12.596Z,73.39
2022-08-01T06:53:39.592Z,72.94
2022-08-01T06:56:09.698Z,73.12
2022-08-01T06:58:37.426Z,72.63
2022-08-01T07:01:08.351Z,72.74
2022-08-01T07:03:53.320Z,72.79
2022-08-01T07:06:24.211Z,72.66
2022-08-01T07:08:51.344Z,72.65
2022-08-01T07:11:18.631Z,72.72
2022-08-01T07:13:46.944Z,72.61
2022-08-01T07:16:15.522Z,72.38
2022-08-01T07:18:43.327Z,73.00
2022-08-01T07:21:38.208Z,73.31
2022-08-01T07:23:57.422Z,73.25
2022-08-01T07:26:28.499Z,73.56
2022-08-01T07:28:56.230Z,73.56
2022-08-01T07:31:24.136Z,73.31
2022-08-01T07:33:52.662Z,73.44
2022-08-01T07:36:20.243Z,72.99
2022-08-01T07:38:47.787Z,72.42
2022-08-01T07:41:15.815Z,72.05
2022-08-01T07:43:51.769Z,68.88
2022-08-01T07:46:23.415Z,69.11
2022-08-01T07:48:51.107Z,67.61
2022-08-01T07:51:18.020Z,67.12
2022-08-01T07:53:44.874Z,66.13
2022-08-01T07:56:11.679Z,64.70
2022-08-01T07:58:38.982Z,63.57
2022-08-01T08:01:06.106Z,63.18
2022-08-01T08:03:33.427Z,62.37
2022-08-01T08:06:00.717Z,62.15
2022-08-01T08:08:27.832Z,61.27
2022-08-01T08:10:55.051Z,60.23
2022-08-01T08:13:22.597Z,60.24
2022-08-01T08:15:49.523Z,59.78
2022-08-01T08:18:17.188Z,57.80
2022-08-01T08:20:44.691Z,57.86
2022-08-01T08:23:43.654Z,56.50
2022-08-01T08:26:14.323Z,53.84
2022-08-01T08:28:41.239Z,55.64
2022-08-01T08:31:24.984Z,55.24
2022-08-01T08:33:56.498Z,54.23
2022-08-01T08:36:30.774Z,53.20
2022-08-01T08:38:58.080Z,52.92
2022-08-01T08:41:25.120Z,53.28
2022-08-01T08:43:51.967Z,52.95
2022-08-01T08:46:28.100Z,52.42
2022-08-01T08:48:57.120Z,51.70
2022-08-01T08:51:27.260Z,51.19
2022-08-01T08:53:57.309Z,50.42
2022-08-01T08:56:28.328Z,48.99
2022-08-01T08:58:55.524Z,49.37
2022-08-01T09:01:23.133Z,49.88
2022-08-01T09:03:50.162Z,48.55
2022-08-01T09:06:17.014Z,48.28
2022-08-01T09:08:43.994Z,48.76
2022-08-01T09:11:11.832Z,48.78
2022-08-01T09:13:45.363Z,48.14
2022-08-01T09:16:18.697Z,47.87
2022-08-01T09:18:53.622Z,48.35
2022-08-01T09:21:25.171Z,47.32
2022-08-01T09:23:55.388Z,48.15
2022-08-01T09:26:36.234Z,47.72
2022-08-01T09:29:07.332Z,48.06
2022-08-01T09:31:47.093Z,47.77
2022-08-01T09:34:19.769Z,47.42
2022-08-01T09:36:59.245Z,47.72
2022-08-01T09:39:34.955Z,46.47
2022-08-01T09:42:19.590Z,46.35
2022-08-01T09:44:55.064Z,46.80
2022-08-01T09:47:23.514Z,46.80
2022-08-01T09:49:59.224Z,46.68
2022-08-01T09:52:28.772Z,46.64
2022-08-01T09:55:06.762Z,45.32
2022-08-01T09:57:33.711Z,45.70
2022-08-01T10:00:02.993Z,46.38
2022-08-01T10:02:41.477Z,45.16
2022-08-01T10:05:18.879Z,46.00
2022-08-01T10:08:07.555Z,43.56
2022-08-01T10:10:37.508Z,44.66
2022-08-01T10:13:05.547Z,45.30
2022-08-01T10:15:36.863Z,45.23
2022-08-01T10:18:16.528Z,45.29
2022-08-01T10:20:53.501Z,43.29
2022-08-01T10:23:40.751Z,43.58
2022-08-01T10:26:09.816Z,43.79
2022-08-01T10:28:39.502Z,44.64
2022-08-01T10:31:09.004Z,43.98
2022-08-01T10:33:51.973Z,44.40
2022-08-01T10:36:25.563Z,43.36
2022-08-01T10:38:56.577Z,43.84
2022-08-01T10:41:25.708Z,42.94
2022-08-01T10:43:55.667Z,43.06
2022-08-01T10:46:22.628Z,43.77
2022-08-01T10:49:01.790Z,42.12
2022-08-01T10:51:52.186Z,43.05
2022-08-01T10:54:16.613Z,42.04
2022-08-01T10:56:51.334Z,41.47
2022-08-01T10:59:49.900Z,40.69
2022-08-01T11:02:31.986Z,42.04
2022-08-01T11:05:04.841Z,42.34
2022-08-01T11:07:50.309Z,41.36
2022-08-01T11:10:24.472Z,42.29
2022-08-01T11:12:51.919Z,41.07
2022-08-01T11:15:30.069Z,41.83
2022-08-01T11:18:01.135Z,42.18
2022-08-01T11:20:41.601Z,40.99
2022-08-01T11:23:10.817Z,40.48
2022-08-01T11:25:58.384Z,41.65
2022-08-01T11:28:33.150Z,40.71
2022-08-01T11:31:11.019Z,40.29
2022-08-01T11:33:47.055Z,40.30
2022-08-01T11:36:15.226Z,39.65
2022-08-01T11:39:14.273Z,41.11
2022-08-01T11:41:44.981Z,40.31
2022-08-01T11:44:26.910Z,39.87
2022-08-01T11:46:57.947Z,39.93
2022-08-01T11:49:49.188Z,40.57
2022-08-01T11:52:36.368Z,37.50
2022-08-01T11:55:03.167Z,38.33
2022-08-01T11:57:36.281Z,38.75
2022-08-01T12:00:16.638Z,38.81
2022-08-01T12:02:46.849Z,39.11
2022-08-01T12:05:19.352Z,39.35
2022-08-01T12:07:50.928Z,39.46
2022-08-01T12:10:21.096Z,39.64
2022-08-01T12:12:51.057Z,39.36
2022-08-01T12:15:20.048Z,39.20
2022-08-01T12:18:00.088Z,39.00
2022-08-01T12:20:36.715Z,38.13
2022-08-01T12:23:09.949Z,39.14
2022-08-01T12:25:38.267Z,39.05
2022-08-01T12:28:09.005Z,39.08
2022-08-01T12:30:38.878Z,39.03
2022-08-01T12:33:09.083Z,39.30
2022-08-01T12:35:39.101Z,38.43
2022-08-01T12:38:15.249Z,38.63
2022-08-01T12:40:45.754Z,38.73
2022-08-01T12:43:27.223Z,38.55
2022-08-01T12:45:58.269Z,37.77
2022-08-01T12:48:26.150Z,37.74
2022-08-01T12:50:54.387Z,37.92
2022-08-01T12:53:22.777Z,37.26
2022-08-01T12:55:58.333Z,36.75
2022-08-01T12:58:32.821Z,36.63
2022-08-01T13:01:09.979Z,36.76
2022-08-01T13:03:37.434Z,37.56
2022-08-01T13:06:17.188Z,36.63
2022-08-01T13:08:45.634Z,36.94
2022-08-01T13:11:19.213Z,36.63
2022-08-01T13:13:49.575Z,36.61
2022-08-01T13:16:27.822Z,36.44
2022-08-01T13:19:01.838Z,36.69
2022-08-01T13:21:34.662Z,36.46
2022-08-01T13:24:29.164Z,36.91
2022-08-01T13:27:04.495Z,36.53
2022-08-01T13:29:42.684Z,36.19
2022-08-01T13:32:29.487Z,36.37
2022-08-01T13:35:06.675Z,37.14
2022-08-01T13:37:34.026Z,36.46
2022-08-01T13:40:01.605Z,37.04
2022-08-01T13:42:30.336Z,36.72
2022-08-01T13:44:57.194Z,37.19
2022-08-01T13:47:33.421Z,36.96
2022-08-01T13:50:04.012Z,36.70
2022-08-01T13:52:32.009Z,36.99
2022-08-01T13:55:00.424Z,36.51
2022-08-01T13:57:36.348Z,36.67
2022-08-01T14:00:25.605Z,37.14
2022-08-01T14:02:55.321Z,37.13
2022-08-01T14:05:22.512Z,36.51
2022-08-01T14:07:49.514Z,36.72
2022-08-01T14:10:19.625Z,36.04
2022-08-01T14:12:50.828Z,36.60
2022-08-01T14:15:38.319Z,36.34
2022-08-01T14:18:06.828Z,35.82
2022-08-01T14:20:35.770Z,36.60
2022-08-01T14:23:02.830Z,36.82
2022-08-01T14:26:02.978Z,36.22
2022-08-01T14:28:17.094Z,36.49
2022-08-01T14:30:44.831Z,36.69
2022-08-01T14:33:13.539Z,35.82
2022-08-01T14:36:05.467Z,36.33
2022-08-01T14:38:31.545Z,36.91
2022-08-01T14:41:00.625Z,36.36
2022-08-01T14:43:32.778Z,36.42
2022-08-01T14:46:04.862Z,37.17
2022-08-01T14:48:32.217Z,36.41
2022-08-01T14:51:03.955Z,35.92
2022-08-01T14:53:34.283Z,35.37
2022-08-01T14:56:06.161Z,36.01
2022-08-01T14:58:33.528Z,36.11
2022-08-01T15:01:00.519Z,35.60
2022-08-01T15:03:27.939Z,35.67
2022-08-01T15:05:54.937Z,35.58
2022-08-01T15:08:21.829Z,35.97
2022-08-01T15:10:48.666Z,36.48
2022-08-01T15:13:15.981Z,36.45
2022-08-01T15:15:42.860Z,36.60
2022-08-01T15:18:10.019Z,36.60
2022-08-01T15:20:36.963Z,36.10
2022-08-01T15:23:03.885Z,35.97
2022-08-01T15:25:41.362Z,36.02
2022-08-01T15:28:11.003Z,36.16
2022-08-01T15:30:38.273Z,36.10
2022-08-01T15:33:05.260Z,36.52
2022-08-01T15:35:32.436Z,36.80
2022-08-01T15:37:59.636Z,36.51
2022-08-01T15:40:27.901Z,36.30
2022-08-01T15:42:54.915Z,36.34
2022-08-01T15:45:47.358Z,36.35
2022-08-01T15:48:09.715Z,36.34
2022-08-01T15:50:38.774Z,36.54
2022-08-01T15:53:06.423Z,36.10
2022-08-01T15:55:35.649Z,36.59
2022-08-01T15:58:06.158Z,36.50
2022-08-01T16:00:33.802Z,36.56
2022-08-01T16:03:10.657Z,37.34
2022-08-01T16:05:43.364Z,36.77
2022-08-01T16:08:14.503Z,36.76
2022-08-01T16:10:42.101Z,35.43
2022-08-01T16:13:09.827Z,36.06
2022-08-01T16:15:38.110Z,35.69
2022-08-01T16:18:07.661Z,36.09
2022-08-01T16:20:35.579Z,36.38
2022-08-01T16:23:02.727Z,36.68
2022-08-01T16:25:29.565Z,36.47
2022-08-01T16:27:56.529Z,36.32
2022-08-01T16:30:23.532Z,36.63
2022-08-01T16:32:52.714Z,36.60
2022-08-01T16:35:28.212Z,36.88
2022-08-01T16:38:07.060Z,36.57
2022-08-01T16:40:46.326Z,37.27
2022-08-01T16:43:16.116Z,37.08
2022-08-01T16:45:43.387Z,37.08
2022-08-01T16:48:12.553Z,37.14
2022-08-01T16:50:39.938Z,36.83
2022-08-01T16:53:06.914Z,37.11
2022-08-01T16:55:50.201Z,36.63
2022-08-01T16:58:27.295Z,37.27
2022-08-01T17:00:56.753Z,37.42
2022-08-01T17:03:46.560Z,37.38
2022-08-01T17:06:13.094Z,37.58
2022-08-01T17:08:46.581Z,37.57
2022-08-01T17:11:14.706Z,37.81
2022-08-01T17:13:42.046Z,38.42
2022-08-01T17:16:09.919Z,38.11
2022-08-01T17:18:36.834Z,37.46
2022-08-01T17:21:04.113Z,37.98
2022-08-01T17:23:32.185Z,38.39
2022-08-01T17:26:00.038Z,38.82
2022-08-01T17:28:27.223Z,38.82
2022-08-01T17:30:54.278Z,38.86
2022-08-01T17:33:21.365Z,38.96
2022-08-01T17:35:48.595Z,39.13
2022-08-01T17:38:15.998Z,38.62
2022-08-01T17:40:44.172Z,38.66
2022-08-01T17:43:11.067Z,39.29
2022-08-01T17:45:50.230Z,39.55
2022-08-01T17:48:19.865Z,39.41
2022-08-01T17:50:48.859Z,39.88
2022-08-01T17:53:20.782Z,39.32
2022-08-01T17:55:54.422Z,39.76
2022-08-01T17:58:48.775Z,39.62
2022-08-01T18:01:17.708Z,39.81
2022-08-01T18:03:44.934Z,39.63
2022-08-01T18:06:15.723Z,40.08
2022-08-01T18:08:43.776Z,40.05
2022-08-01T18:11:11.316Z,40.45
2022-08-01T18:13:40.670Z,40.61
2022-08-01T18:16:11.386Z,40.66
2022-08-01T18:18:39.553Z,41.17
2022-08-01T18:21:08.560Z,41.92
2022-08-01T18:23:36.294Z,42.98
2022-08-01T18:26:07.140Z,43.66
2022-08-01T18:28:41.744Z,43.97
2022-08-01T18:31:16.693Z,44.22
2022-08-01T18:33:43.766Z,44.82
2022-08-01T18:36:16.141Z,45.74
2022-08-01T18:38:59.004Z,48.04
2022-08-01T18:41:25.807Z,50.57
2022-08-01T18:44:04.245Z,51.37
2022-08-01T18:46:39.557Z,53.42
2022-08-01T18:49:10.727Z,54.41
2022-08-01T18:51:43.808Z,55.82
2022-08-01T18:54:13.105Z,56.32
2022-08-01T18:56:40.408Z,57.57
2022-08-01T18:59:07.620Z,58.61
2022-08-01T19:01:34.946Z,58.95
2022-08-01T19:04:02.480Z,59.42
2022-08-01T19:06:29.556Z,60.02
2022-08-01T19:09:01.884Z,60.57
2022-08-01T19:11:31.150Z,61.40
2022-08-01T19:13:58.592Z,61.86
2022-08-01T19:16:26.551Z,62.67
2022-08-01T19:18:53.867Z,63.47
2022-08-01T19:21:22.556Z,63.68
2022-08-01T19:24:08.052Z,63.96
2022-08-01T19:26:36.303Z,64.14
2022-08-01T19:29:24.472Z,64.59
2022-08-01T19:32:05.645Z,65.26
2022-08-01T19:34:37.256Z,65.23
2022-08-01T19:37:04.997Z,65.65
2022-08-01T19:39:32.301Z,65.64
2022-08-01T19:41:59.813Z,65.91
2022-08-01T19:44:29.269Z,65.56
2022-08-01T19:46:56.513Z,65.60
2022-08-01T19:49:24.273Z,65.23
2022-08-01T19:52:01.395Z,65.22
2022-08-01T19:54:35.261Z,65.29
2022-08-01T19:57:05.754Z,65.57
2022-08-01T19:59:36.281Z,65.75
2022-08-01T20:02:04.841Z,65.65
2022-08-01T20:04:32.006Z,65.55
2022-08-01T20:06:58.901Z,65.48
2022-08-01T20:09:28.020Z,65.48
2022-08-01T20:11:55.426Z,65.44
2022-08-01T20:14:25.889Z,65.68
2022-08-01T20:16:55.337Z,65.94
2022-08-01T20:19:26.703Z,66.60
2022-08-01T20:22:14.053Z,66.34
2022-08-01T20:24:46.230Z,66.07
2022-08-01T20:27:15.694Z,66.51
2022-08-01T20:29:45.877Z,66.37
2022-08-01T20:32:13.724Z,66.88
2022-08-01T20:34:41.266Z,66.60
2022-08-01T20:37:13.174Z,67.01
2022-08-01T20:39:45.054Z,67.04
2022-08-01T20:42:14.777Z,67.22
2022-08-01T20:44:43.216Z,67.02
2022-08-01T20:47:10.553Z,67.23
2022-08-01T20:49:38.217Z,67.00
2022-08-01T20:52:11.762Z,67.12
2022-08-01T20:54:43.227Z,67.19
2022-08-01T20:57:25.731Z,67.10
2022-08-01T21:00:02.236Z,66.70
2022-08-01T21:03:04.021Z,67.32
2022-08-01T21:05:32.816Z,67.12
2022-08-01T21:08:08.253Z,67.29
2022-08-01T21:10:37.015Z,67.18
2022-08-01T21:13:20.596Z,66.88
2022-08-01T21:16:12.596Z,67.17
2022-08-01T21:19:19.183Z,67.28
2022-08-01T21:22:11.963Z,67.40
2022-08-01T21:24:58.077Z,67.70
2022-08-01T21:27:33.263Z,67.52
2022-08-01T21:30:05.508Z,67.19
2022-08-01T21:32:36.555Z,67.32
2022-08-01T21:35:16.847Z,67.08
2022-08-01T21:37:51.843Z,67.39
2022-08-01T21:40:23.321Z,67.16
2022-08-01T21:42:52.813Z,67.40
2022-08-01T21:45:27.553Z,67.96
2022-08-01T21:47:56.782Z,67.98
2022-08-01T21:50:24.814Z,68.12
2022-08-01T21:53:09.564Z,68.20
2022-08-01T21:56:01.807Z,69.28
2022-08-01T21:58:55.887Z,69.21
2022-08-01T22:01:53.278Z,69.01
2022-08-01T22:04:36.089Z,69.35
2022-08-01T22:07:03.864Z,69.64
2022-08-01T22:09:32.901Z,69.96
2022-08-01T22:12:04.020Z,70.01
2022-08-01T22:14:33.799Z,70.15
2022-08-01T22:17:01.626Z,70.29
2022-08-01T22:19:35.118Z,70.48
2022-08-01T22:22:45.063Z,70.49
2022-08-01T22:25:02.371Z,70.51
2022-08-01T22:28:05.808Z,70.51
2022-08-01T22:30:18.787Z,70.63
2022-08-01T22:33:07.501Z,70.46
2022-08-01T22:35:36.410Z,70.62
2022-08-01T22:38:07.513Z,70.78
2022-08-01T22:40:46.503Z,70.89
2022-08-01T22:43:47.264Z,70.81
2022-08-01T22:47:09.598Z,71.03
2022-08-01T22:50:01.951Z,70.84
2022-08-01T22:52:30.521Z,70.88
2022-08-01T22:55:05.856Z,70.89
2022-08-01T22:57:52.337Z,70.78
2022-08-01T23:00:19.889Z,70.51
2022-08-01T23:02:55.441Z,70.88
2022-08-01T23:05:25.622Z,70.98
2022-08-01T23:07:55.950Z,70.78
2022-08-01T23:10:26.280Z,70.92
2022-08-01T23:12:55.721Z,71.24
2022-08-01T23:15:24.526Z,71.35
2022-08-01T23:17:52.255Z,71.53
2022-08-01T23:20:19.363Z,71.39
2022-08-01T23:22:48.137Z,71.85
2022-08-01T23:25:16.888Z,71.83
2022-08-01T23:27:51.403Z,72.24
2022-08-01T23:30:34.565Z,71.96
2022-08-01T23:33:01.729Z,72.28
2022-08-01T23:35:30.216Z,72.25
2022-08-01T23:37:58.521Z,72.48
2022-08-01T23:40:33.953Z,72.59
2022-08-01T23:43:03.915Z,73.00
2022-08-01T23:46:01.707Z,72.91
2022-08-01T23:48:18.940Z,72.93
2022-08-01T23:50:45.786Z,73.37
2022-08-01T23:53:12.670Z,73.45
2022-08-01T23:55:40.525Z,73.77
2022-08-01T23:58:10.414Z,74.00
